Huntington, IN (46750)

11:10 PM EST on February 13, 2016 (GMT -0500)
Precision Ag Guy | | Change Station
CLOSE
Current Station
Personal Weather Station
Location: Huntington, IN
Elevation: 820 ft
Nearby Weather Stations

Elev 820 ft 40.81 °N, 85.49 °W | Updated 10 seconds ago

Mostly Cloudy
Mostly Cloudy
3.2 °F
Feels Like 3 °F
N
1.0
Wind Variable Wind from East
Gusts 1.0 mph

Today
High -- | Low -- °F
--% Chance of Precip.
Yesterday
High -- | Low -- °F
Precip. -- in
Pressure 30.55 in
Visibility 10.0 miles
Clouds Few 3100 ft
Windchill 3 °F
Dew Point -1 °F
Humidity 81%
Rainfall in
Snow Depth Not available.
7:39 AM 6:13 PM
Waxing Crescent, 37% visible
METAR KFWA 140354Z 26006KT 10SM FEW031 M14/M18 A3049 RMK AO2 SLP343 T11391178 $
Pressure 30.55 in
Visibility 10.0 miles
Clouds Few 3100 ft
Windchill 3 °F
Dew Point -1 °F
Humidity 81%
Rainfall in
Snow Depth Not available.
7:39 AM 6:13 PM
Waxing Crescent, 37% visible
METAR KFWA 140354Z 26006KT 10SM FEW031 M14/M18 A3049 RMK AO2 SLP343 T11391178 $

10-Day Weather Forecast

Almanac

Astronomy

Feb. 13, 2016 Rise Set
Actual Time
Civil Twilight
Nautical Twilight
Astronomical Twilight
Moon
Length of Visible Light
Length of Day
Tomorrow will be .
, % of the Moon is Illuminated

Today's Extremes

State Highs State Lows

Community

WunderPhotos

Upload Photos

1,892,743 photos uploaded!

WunderBlog® & News

Nearby

Air Quality

  Air Quality AQ Index Pollutant
Not available.

Snow Depth

Station Depth Elevation

Earthquake Activity

City Distance Mag. Time & Date
Minimum magnitude displayed is 2.5.

Coastal Water Temperatures

Place Temperature

Stations

Nearby Weather Stations

Station Location Temp. Windchill Dew Point Humidity Wind Precip. Elev Updated Type
                   

Watches & Warnings

There are currently no watches in effect.